createdAt,value
2023-01-30T00:01:18.554Z,45710.00
2023-01-30T00:03:45.797Z,45692.00
2023-01-30T00:06:12.271Z,45706.00
2023-01-30T00:08:38.719Z,45686.00
2023-01-30T00:11:10.304Z,45702.00
2023-01-30T00:13:37.143Z,45698.00
2023-01-30T00:16:04.429Z,45718.00
2023-01-30T00:18:31.155Z,45680.03
2023-01-30T00:20:58.712Z,45690.00
2023-01-30T00:23:26.500Z,45690.00
2023-01-30T00:25:53.305Z,45682.00
2023-01-30T00:28:20.061Z,45686.00
2023-01-30T00:30:51.451Z,45698.00
2023-01-30T00:33:18.234Z,45692.00
2023-01-30T00:35:46.056Z,45678.03
2023-01-30T00:38:14.236Z,45702.00
2023-01-30T00:40:41.648Z,45692.00
2023-01-30T00:43:30.755Z,45676.03
2023-01-30T00:46:16.352Z,45698.00
2023-01-30T00:48:42.764Z,45666.03
2023-01-30T00:51:09.146Z,45682.00
2023-01-30T00:53:35.512Z,45684.00
2023-01-30T00:56:02.184Z,45690.00
2023-01-30T00:58:28.835Z,45678.03
2023-01-30T01:00:56.083Z,45698.00
2023-01-30T01:03:23.163Z,45668.03
2023-01-30T01:05:49.604Z,45698.00
2023-01-30T01:08:16.102Z,45684.00
2023-01-30T01:10:42.569Z,45674.03
2023-01-30T01:13:10.774Z,45690.00
2023-01-30T01:15:37.392Z,45678.03
2023-01-30T01:18:05.197Z,45686.00
2023-01-30T01:20:31.644Z,45686.00
2023-01-30T01:22:58.431Z,45674.03
2023-01-30T01:25:25.981Z,45658.03
2023-01-30T01:27:54.198Z,45676.03
2023-01-30T01:30:20.952Z,45650.03
2023-01-30T01:32:47.368Z,45666.03
2023-01-30T01:35:13.973Z,45672.03
2023-01-30T01:37:40.697Z,45692.00
2023-01-30T01:40:26.177Z,45668.03
2023-01-30T01:42:53.204Z,45698.00
2023-01-30T01:45:23.191Z,45686.00
2023-01-30T01:47:56.320Z,45658.03
2023-01-30T01:50:46.071Z,45678.03
2023-01-30T01:53:15.328Z,45654.03
2023-01-30T01:55:43.947Z,45678.03
2023-01-30T01:58:23.143Z,45654.03
2023-01-30T02:00:51.479Z,45682.00
2023-01-30T02:03:23.702Z,45674.03
2023-01-30T02:05:52.821Z,45658.03
2023-01-30T02:08:30.314Z,45674.03
2023-01-30T02:11:18.308Z,45678.03
2023-01-30T02:13:46.999Z,45682.00
2023-01-30T02:16:13.925Z,45638.06
2023-01-30T02:18:43.706Z,45658.03
2023-01-30T02:21:43.611Z,45662.03
2023-01-30T02:24:12.908Z,45678.03
2023-01-30T02:27:05.187Z,45656.03
2023-01-30T02:30:09.704Z,45656.03
2023-01-30T02:32:50.579Z,45670.03
2023-01-30T02:35:40.373Z,45652.03
2023-01-30T02:38:23.849Z,45666.03
2023-01-30T02:41:19.664Z,45658.03
2023-01-30T02:43:54.616Z,45674.03
2023-01-30T02:46:26.855Z,45650.03
2023-01-30T02:48:59.337Z,45658.03
2023-01-30T02:51:36.092Z,45666.03
2023-01-30T02:54:02.675Z,45646.03
2023-01-30T02:56:29.110Z,45666.03
2023-01-30T02:59:00.581Z,45656.03
2023-01-30T03:01:48.820Z,45670.03
2023-01-30T03:04:31.836Z,45642.03
2023-01-30T03:07:24.685Z,45670.03
2023-01-30T03:10:13.917Z,45642.03
2023-01-30T03:12:56.365Z,45642.03
2023-01-30T03:15:33.253Z,45678.03
2023-01-30T03:18:00.714Z,45654.03
2023-01-30T03:20:27.272Z,45654.03
2023-01-30T03:22:54.670Z,45654.03
2023-01-30T03:25:26.509Z,45652.03
2023-01-30T03:27:54.876Z,45658.03
2023-01-30T03:30:26.074Z,45664.03
2023-01-30T03:33:00.098Z,45658.03
2023-01-30T03:35:26.880Z,45658.03
2023-01-30T03:37:53.692Z,45652.03
2023-01-30T03:40:20.395Z,45654.03
2023-01-30T03:42:47.125Z,45636.06
2023-01-30T03:45:14.810Z,45634.06
2023-01-30T03:47:42.974Z,45666.03
2023-01-30T03:50:10.483Z,45670.03
2023-01-30T03:52:37.122Z,45638.06
2023-01-30T03:55:07.857Z,45668.03
2023-01-30T03:57:34.324Z,45650.03
2023-01-30T04:00:01.097Z,45650.03
2023-01-30T04:02:27.690Z,45642.03
2023-01-30T04:04:55.970Z,45638.06
2023-01-30T04:07:23.665Z,45654.03
2023-01-30T04:09:51.471Z,45646.03
2023-01-30T04:12:19.696Z,45640.03
2023-01-30T04:14:53.288Z,45658.03
2023-01-30T04:17:40.035Z,45654.03
2023-01-30T04:20:24.625Z,45654.03
2023-01-30T04:22:55.496Z,45646.03
2023-01-30T04:25:23.825Z,45666.03
2023-01-30T04:27:50.504Z,45654.03
2023-01-30T04:30:20.696Z,45640.03
2023-01-30T04:32:49.768Z,45646.03
2023-01-30T04:35:16.522Z,45658.03
2023-01-30T04:37:43.622Z,45652.03
2023-01-30T04:40:13.312Z,45670.03
2023-01-30T04:42:40.550Z,45662.03
2023-01-30T04:45:25.337Z,45672.03
2023-01-30T04:47:52.704Z,45666.03
2023-01-30T04:50:19.204Z,45676.03
2023-01-30T04:52:46.434Z,45642.03
2023-01-30T04:55:13.429Z,45650.03
2023-01-30T04:57:40.354Z,45654.03
2023-01-30T05:00:07.613Z,45648.03
2023-01-30T05:02:37.011Z,45658.03
2023-01-30T05:05:03.570Z,45658.03
2023-01-30T05:07:30.037Z,45658.03
2023-01-30T05:09:56.414Z,45662.03
2023-01-30T05:12:22.970Z,45652.03
2023-01-30T05:14:49.338Z,45642.03
2023-01-30T05:17:15.839Z,45638.06
2023-01-30T05:19:42.300Z,45634.06
2023-01-30T05:22:08.783Z,45646.03
2023-01-30T05:24:35.160Z,45658.03
2023-01-30T05:27:01.571Z,45666.03
2023-01-30T05:29:27.973Z,45674.03
2023-01-30T05:31:54.368Z,45654.03
2023-01-30T05:34:21.017Z,45666.03
2023-01-30T05:36:47.649Z,45666.03
2023-01-30T05:39:14.142Z,45652.03
2023-01-30T05:41:40.522Z,45662.03
2023-01-30T05:44:07.088Z,45654.03
2023-01-30T05:46:33.554Z,45662.03
2023-01-30T05:48:59.983Z,45662.03
2023-01-30T05:51:27.281Z,45646.03
2023-01-30T05:53:54.677Z,45648.03
2023-01-30T05:56:21.831Z,45630.06
2023-01-30T05:58:56.177Z,45658.03
2023-01-30T06:01:23.564Z,45648.03
2023-01-30T06:03:50.089Z,45650.03
2023-01-30T06:06:17.047Z,45648.03
2023-01-30T06:08:43.601Z,45646.03
2023-01-30T06:11:13.271Z,45654.03
2023-01-30T06:13:40.172Z,45646.03
2023-01-30T06:16:08.274Z,45654.03
2023-01-30T06:18:35.455Z,45656.03
2023-01-30T06:21:02.126Z,45634.06
2023-01-30T06:23:28.659Z,45650.03
2023-01-30T06:25:55.656Z,45638.06
2023-01-30T06:28:23.097Z,45640.03
2023-01-30T06:30:49.922Z,45634.06
2023-01-30T06:33:16.694Z,45634.06
2023-01-30T06:35:43.807Z,45644.03
2023-01-30T06:38:13.185Z,45630.06
2023-01-30T06:40:41.091Z,45640.03
2023-01-30T06:43:07.907Z,45634.06
2023-01-30T06:45:34.524Z,45650.03
2023-01-30T06:48:00.928Z,45632.06
2023-01-30T06:50:28.980Z,45632.06
2023-01-30T06:52:56.607Z,45642.03
2023-01-30T06:55:28.294Z,45658.03
2023-01-30T06:58:27.329Z,45652.03
2023-01-30T07:00:53.978Z,45630.06
2023-01-30T07:03:20.475Z,45640.03
2023-01-30T07:05:48.067Z,45632.06
2023-01-30T07:08:15.847Z,45614.06
2023-01-30T07:10:43.325Z,45638.06
2023-01-30T07:13:09.875Z,45638.06
2023-01-30T07:15:36.294Z,45648.03
2023-01-30T07:18:02.857Z,45628.06
2023-01-30T07:20:31.136Z,45642.03
2023-01-30T07:22:57.564Z,45622.06
2023-01-30T07:25:26.302Z,45646.03
2023-01-30T07:27:58.413Z,45644.03
2023-01-30T07:30:26.273Z,45634.06
2023-01-30T07:33:00.398Z,45646.03
2023-01-30T07:35:29.513Z,45626.06
2023-01-30T07:37:56.384Z,45662.03
2023-01-30T07:40:23.038Z,45630.06
2023-01-30T07:43:07.462Z,45642.03
2023-01-30T07:45:39.018Z,45650.03
2023-01-30T07:48:06.367Z,45638.06
2023-01-30T07:50:33.037Z,45630.06
2023-01-30T07:52:59.524Z,45642.03
2023-01-30T07:55:26.986Z,45638.06
2023-01-30T07:57:54.063Z,45656.03
2023-01-30T08:00:21.187Z,45654.03
2023-01-30T08:02:47.925Z,45646.03
2023-01-30T08:05:14.434Z,45644.03
2023-01-30T08:07:40.933Z,45644.03
2023-01-30T08:10:09.776Z,45634.06
2023-01-30T08:12:37.617Z,45630.06
2023-01-30T08:15:04.671Z,45626.06
2023-01-30T08:17:31.133Z,45620.06
2023-01-30T08:19:57.546Z,45646.03
2023-01-30T08:22:23.988Z,45642.03
2023-01-30T08:24:50.606Z,45630.06
2023-01-30T08:27:18.621Z,45624.06
2023-01-30T08:29:45.159Z,45628.06
2023-01-30T08:32:11.843Z,45638.06
2023-01-30T08:34:39.373Z,45610.06
2023-01-30T08:37:05.731Z,45626.06
2023-01-30T08:39:32.146Z,45630.06
2023-01-30T08:41:58.621Z,45622.06
2023-01-30T08:44:25.044Z,45640.03
2023-01-30T08:46:51.492Z,45652.03
2023-01-30T08:49:17.943Z,45630.06
2023-01-30T08:51:44.368Z,45630.06
2023-01-30T08:54:10.813Z,45626.06
2023-01-30T08:56:37.668Z,45628.06
2023-01-30T08:59:04.040Z,45632.06
2023-01-30T09:01:30.928Z,45638.06
2023-01-30T09:03:57.421Z,45630.06
2023-01-30T09:06:26.162Z,45638.06
2023-01-30T09:08:52.794Z,45638.06
2023-01-30T09:11:19.260Z,45618.06
2023-01-30T09:13:47.597Z,45606.06
2023-01-30T09:16:15.218Z,45624.06
2023-01-30T09:18:43.341Z,45618.06
2023-01-30T09:21:11.047Z,45606.06
2023-01-30T09:23:37.782Z,45614.06
2023-01-30T09:26:05.152Z,45636.06
2023-01-30T09:28:32.254Z,45630.06
2023-01-30T09:31:00.050Z,45644.03
2023-01-30T09:33:27.295Z,45614.06
2023-01-30T09:35:53.925Z,45614.06
2023-01-30T09:38:21.538Z,45626.06
2023-01-30T09:41:06.207Z,45640.03
2023-01-30T09:44:02.751Z,45640.03
2023-01-30T09:46:38.222Z,45638.06
2023-01-30T09:49:14.948Z,45624.06
2023-01-30T09:52:02.007Z,45626.06
2023-01-30T09:54:36.389Z,45626.06
2023-01-30T09:57:21.832Z,45634.06
2023-01-30T09:59:55.034Z,45620.06
2023-01-30T10:02:41.040Z,45616.06
2023-01-30T10:05:08.343Z,45620.06
2023-01-30T10:07:53.695Z,45626.06
2023-01-30T10:11:08.962Z,45614.06
2023-01-30T10:14:04.137Z,45606.06
2023-01-30T10:16:41.561Z,45630.06
2023-01-30T10:19:36.719Z,45618.06
2023-01-30T10:22:22.270Z,45604.06
2023-01-30T10:25:06.377Z,45622.06
2023-01-30T10:27:34.695Z,45638.06
2023-01-30T10:30:05.868Z,45616.06
2023-01-30T10:32:40.013Z,45606.06
2023-01-30T10:35:15.889Z,45610.06
2023-01-30T10:38:14.229Z,45606.06
2023-01-30T10:40:52.148Z,45610.06
2023-01-30T10:43:53.203Z,45614.06
2023-01-30T10:46:44.297Z,45614.06
2023-01-30T10:49:19.486Z,45612.06
2023-01-30T10:52:01.834Z,45606.06
2023-01-30T10:54:34.599Z,45624.06
2023-01-30T10:57:38.725Z,45610.06
2023-01-30T11:00:34.366Z,45610.06
2023-01-30T11:03:16.212Z,45614.06
2023-01-30T11:05:49.844Z,45600.06
2023-01-30T11:08:33.804Z,45608.06
2023-01-30T11:11:01.170Z,45610.06
2023-01-30T11:13:30.411Z,45618.06
2023-01-30T11:16:00.548Z,45626.06
2023-01-30T11:19:17.120Z,45610.06
2023-01-30T11:21:27.089Z,45590.09
2023-01-30T11:24:04.444Z,45606.06
2023-01-30T11:26:46.692Z,45602.06
2023-01-30T11:29:24.282Z,45620.06
2023-01-30T11:31:51.890Z,45602.06
2023-01-30T11:34:21.748Z,45578.09
2023-01-30T11:36:49.307Z,45602.06
2023-01-30T11:39:19.704Z,45606.06
2023-01-30T11:41:58.573Z,45614.06
2023-01-30T11:44:36.534Z,45604.06
2023-01-30T11:47:18.079Z,45614.06
2023-01-30T11:50:08.078Z,45590.09
2023-01-30T11:52:44.173Z,45602.06
2023-01-30T11:55:14.958Z,45598.06
2023-01-30T11:57:44.417Z,45602.06
2023-01-30T12:00:19.393Z,45586.09
2023-01-30T12:02:48.197Z,45582.09
2023-01-30T12:05:34.672Z,45574.09
2023-01-30T12:08:17.496Z,45598.06
2023-01-30T12:10:51.504Z,45606.06
2023-01-30T12:13:23.818Z,45590.09
2023-01-30T12:16:12.324Z,45610.06
2023-01-30T12:18:46.254Z,45570.09
2023-01-30T12:21:27.994Z,45578.09
2023-01-30T12:24:21.848Z,45592.09
2023-01-30T12:27:02.990Z,45558.09
2023-01-30T12:30:19.632Z,45570.09
2023-01-30T12:32:46.315Z,45570.09
2023-01-30T12:35:18.489Z,45594.09
2023-01-30T12:37:56.759Z,45564.09
2023-01-30T12:40:41.837Z,45586.09
2023-01-30T12:43:18.329Z,45570.09
2023-01-30T12:45:57.863Z,45562.09
2023-01-30T12:49:07.641Z,45572.09
2023-01-30T12:51:49.331Z,45582.09
2023-01-30T12:54:49.496Z,45572.09
2023-01-30T12:57:34.298Z,45594.09
2023-01-30T13:00:08.946Z,45562.09
2023-01-30T13:02:50.616Z,45566.09
2023-01-30T13:05:26.447Z,45546.13
2023-01-30T13:08:00.128Z,45568.09
2023-01-30T13:10:37.760Z,45570.09
2023-01-30T13:13:30.649Z,45560.09
2023-01-30T13:16:24.947Z,45556.09
2023-01-30T13:19:00.430Z,45574.09
2023-01-30T13:21:34.203Z,45594.09
2023-01-30T13:24:29.747Z,45584.09
2023-01-30T13:27:03.509Z,45550.13
2023-01-30T13:29:35.969Z,45548.13
2023-01-30T13:32:06.766Z,45586.09
2023-01-30T13:34:36.724Z,45566.09
2023-01-30T13:37:13.618Z,45570.09
2023-01-30T13:39:49.071Z,45566.09
2023-01-30T13:42:41.462Z,45578.09
2023-01-30T13:45:16.389Z,45544.13
2023-01-30T13:47:52.941Z,45548.13
2023-01-30T13:50:31.621Z,45568.09
2023-01-30T13:53:06.052Z,45562.09
2023-01-30T13:55:43.050Z,45562.09
2023-01-30T13:58:43.749Z,45542.13
2023-01-30T14:01:12.213Z,45566.09
2023-01-30T14:03:40.536Z,45558.09
2023-01-30T14:06:21.928Z,45570.09
2023-01-30T14:08:54.836Z,45564.09
2023-01-30T14:11:56.143Z,45568.09
2023-01-30T14:14:26.543Z,45574.09
2023-01-30T14:16:56.077Z,45582.09
2023-01-30T14:19:37.509Z,45574.09
2023-01-30T14:22:44.115Z,45582.09
2023-01-30T14:25:22.663Z,45562.09
2023-01-30T14:27:52.573Z,45582.09
2023-01-30T14:30:45.326Z,45562.09
2023-01-30T14:33:20.888Z,45580.09
2023-01-30T14:36:13.368Z,45578.09
2023-01-30T14:38:41.009Z,45554.09
2023-01-30T14:41:07.508Z,45586.09
2023-01-30T14:43:43.283Z,45554.09
2023-01-30T14:46:18.870Z,45572.09
2023-01-30T14:48:49.933Z,45566.09
2023-01-30T14:51:47.700Z,45562.09
2023-01-30T14:54:16.804Z,45586.09
2023-01-30T14:56:59.781Z,45584.09
2023-01-30T14:59:34.530Z,45554.09
2023-01-30T15:02:12.877Z,45572.09
2023-01-30T15:04:44.827Z,45586.09
2023-01-30T15:07:13.137Z,45574.09
2023-01-30T15:09:44.118Z,45566.09
2023-01-30T15:12:44.385Z,45582.09
2023-01-30T15:15:29.350Z,45562.09
2023-01-30T15:18:26.725Z,45590.09
2023-01-30T15:21:08.698Z,45586.09
2023-01-30T15:24:06.331Z,45584.09
2023-01-30T15:26:51.121Z,45586.09
2023-01-30T15:29:33.756Z,45564.09
2023-01-30T15:32:14.673Z,45594.09
2023-01-30T15:34:49.503Z,45570.09
2023-01-30T15:37:40.343Z,45594.09
2023-01-30T15:40:16.081Z,45588.09
2023-01-30T15:42:55.645Z,45566.09
2023-01-30T15:45:34.878Z,45574.09
2023-01-30T15:48:20.142Z,45588.09
2023-01-30T15:50:53.691Z,45576.09
2023-01-30T15:53:27.664Z,45616.06
2023-01-30T15:55:54.808Z,45562.09
2023-01-30T15:58:22.813Z,45610.06
2023-01-30T16:00:52.865Z,45592.09
2023-01-30T16:03:25.863Z,45566.09
2023-01-30T16:05:55.264Z,45586.09
2023-01-30T16:08:27.403Z,45602.06
2023-01-30T16:10:54.330Z,45580.09
2023-01-30T16:13:23.585Z,45574.09
2023-01-30T16:16:03.230Z,45610.06
2023-01-30T16:18:35.462Z,45600.06
2023-01-30T16:21:05.584Z,45562.09
2023-01-30T16:23:38.708Z,45576.09
2023-01-30T16:26:09.478Z,45592.09
2023-01-30T16:28:36.439Z,45598.06
2023-01-30T16:31:09.493Z,45594.09
2023-01-30T16:33:36.477Z,45568.09
2023-01-30T16:36:26.443Z,45568.09
2023-01-30T16:38:54.514Z,45586.09
2023-01-30T16:41:43.181Z,45572.09
2023-01-30T16:44:23.892Z,45606.06
2023-01-30T16:47:04.934Z,45604.06
2023-01-30T16:49:37.532Z,45598.06
2023-01-30T16:52:09.327Z,45602.06
2023-01-30T16:54:36.728Z,45602.06
2023-01-30T16:57:03.834Z,45590.09
2023-01-30T16:59:33.432Z,45588.09
2023-01-30T17:02:04.072Z,45570.09
2023-01-30T17:04:33.340Z,45598.06
2023-01-30T17:07:04.950Z,45598.06
2023-01-30T17:09:36.126Z,45572.09
2023-01-30T17:12:25.301Z,45602.06
2023-01-30T17:15:11.923Z,45602.06
2023-01-30T17:17:39.229Z,45594.09
2023-01-30T17:20:06.538Z,45608.06
2023-01-30T17:22:34.444Z,45620.06
2023-01-30T17:25:06.442Z,45612.06
2023-01-30T17:27:33.810Z,45594.09
2023-01-30T17:30:00.187Z,45612.06
2023-01-30T17:32:26.862Z,45600.06
2023-01-30T17:34:53.262Z,45602.06
2023-01-30T17:37:21.296Z,45614.06
2023-01-30T17:39:48.381Z,45614.06
2023-01-30T17:42:18.601Z,45618.06
2023-01-30T17:44:45.015Z,45590.09
2023-01-30T17:47:12.080Z,45610.06
2023-01-30T17:49:39.209Z,45600.06
2023-01-30T17:52:05.912Z,45604.06
2023-01-30T17:54:32.454Z,45622.06
2023-01-30T17:57:01.992Z,45620.06
2023-01-30T17:59:28.714Z,45614.06
2023-01-30T18:01:55.126Z,45614.06
2023-01-30T18:04:21.616Z,45608.06
2023-01-30T18:06:54.442Z,45618.06
2023-01-30T18:09:23.478Z,45614.06
2023-01-30T18:11:50.610Z,45614.06
2023-01-30T18:14:17.510Z,45614.06
2023-01-30T18:16:44.981Z,45610.06
2023-01-30T18:19:13.843Z,45602.06
2023-01-30T18:21:42.720Z,45608.06
2023-01-30T18:24:09.262Z,45602.06
2023-01-30T18:26:35.918Z,45612.06
2023-01-30T18:29:02.586Z,45618.06
2023-01-30T18:31:30.752Z,45610.06
2023-01-30T18:33:58.047Z,45610.06
2023-01-30T18:36:24.819Z,45610.06
2023-01-30T18:38:53.399Z,45610.06
2023-01-30T18:41:22.092Z,45616.06
2023-01-30T18:43:54.903Z,45598.06
2023-01-30T18:46:21.933Z,45612.06
2023-01-30T18:48:48.582Z,45632.06
2023-01-30T18:51:27.307Z,45622.06
2023-01-30T18:53:54.495Z,45636.06
2023-01-30T18:56:23.457Z,45614.06
2023-01-30T18:58:52.105Z,45610.06
2023-01-30T19:01:22.751Z,45622.06
2023-01-30T19:03:49.238Z,45618.06
2023-01-30T19:06:18.216Z,45618.06
2023-01-30T19:08:45.224Z,45620.06
2023-01-30T19:11:36.312Z,45614.06
2023-01-30T19:14:04.033Z,45638.06
2023-01-30T19:16:32.650Z,45622.06
2023-01-30T19:18:59.750Z,45628.06
2023-01-30T19:21:26.935Z,45638.06
2023-01-30T19:23:54.109Z,45626.06
2023-01-30T19:26:22.580Z,45622.06
2023-01-30T19:28:49.977Z,45602.06
2023-01-30T19:31:18.941Z,45614.06
2023-01-30T19:33:48.243Z,45630.06
2023-01-30T19:36:19.110Z,45624.06
2023-01-30T19:38:48.363Z,45622.06
2023-01-30T19:41:20.443Z,45642.03
2023-01-30T19:43:47.877Z,45638.06
2023-01-30T19:46:14.962Z,45628.06
2023-01-30T19:48:44.974Z,45642.03
2023-01-30T19:51:16.968Z,45638.06
2023-01-30T19:53:45.547Z,45638.06
2023-01-30T19:56:13.401Z,45634.06
2023-01-30T19:58:40.703Z,45626.06
2023-01-30T20:01:13.003Z,45622.06
2023-01-30T20:03:40.605Z,45626.06
2023-01-30T20:06:34.148Z,45634.06
2023-01-30T20:09:03.654Z,45640.03
2023-01-30T20:11:30.338Z,45658.03
2023-01-30T20:13:58.278Z,45656.03
2023-01-30T20:16:27.492Z,45652.03
2023-01-30T20:19:02.463Z,45656.03
2023-01-30T20:21:30.303Z,45628.06
2023-01-30T20:23:58.137Z,45618.06
2023-01-30T20:26:27.767Z,45630.06
2023-01-30T20:28:55.294Z,45654.03
2023-01-30T20:31:24.896Z,45630.06
2023-01-30T20:33:52.648Z,45646.03
2023-01-30T20:36:20.078Z,45642.03
2023-01-30T20:38:47.880Z,45660.03
2023-01-30T20:41:20.184Z,45640.03
2023-01-30T20:43:50.786Z,45658.03
2023-01-30T20:46:20.378Z,45650.03
2023-01-30T20:48:47.005Z,45666.03
2023-01-30T20:51:25.288Z,45656.03
2023-01-30T20:53:54.201Z,45638.06
2023-01-30T20:56:21.911Z,45650.03
2023-01-30T20:58:49.068Z,45674.03
2023-01-30T21:01:18.511Z,45640.03
2023-01-30T21:03:48.894Z,45650.03
2023-01-30T21:06:41.239Z,45646.03
2023-01-30T21:09:03.152Z,45646.03
2023-01-30T21:11:29.554Z,45668.03
2023-01-30T21:13:56.055Z,45650.03
2023-01-30T21:16:24.762Z,45672.03
2023-01-30T21:18:54.544Z,45670.03
2023-01-30T21:21:37.082Z,45670.03
2023-01-30T21:24:09.085Z,45680.03
2023-01-30T21:26:38.075Z,45668.03
2023-01-30T21:29:06.655Z,45666.03
2023-01-30T21:31:34.701Z,45634.06
2023-01-30T21:34:02.410Z,45666.03
2023-01-30T21:36:29.226Z,45660.03
2023-01-30T21:39:15.254Z,45650.03
2023-01-30T21:42:02.727Z,45678.03
2023-01-30T21:44:36.971Z,45680.03
2023-01-30T21:47:04.853Z,45662.03
2023-01-30T21:49:31.365Z,45672.03
2023-01-30T21:51:58.454Z,45670.03
2023-01-30T21:54:25.278Z,45678.03
2023-01-30T21:56:51.761Z,45662.03
2023-01-30T21:59:18.141Z,45658.03
2023-01-30T22:01:44.642Z,45670.03
2023-01-30T22:04:16.218Z,45676.03
2023-01-30T22:06:43.443Z,45658.03
2023-01-30T22:09:14.188Z,45654.03
2023-01-30T22:11:41.160Z,45652.03
2023-01-30T22:14:07.557Z,45666.03
2023-01-30T22:16:34.224Z,45664.03
2023-01-30T22:19:04.288Z,45698.00
2023-01-30T22:21:33.820Z,45678.03
2023-01-30T22:24:01.936Z,45666.03
2023-01-30T22:26:28.616Z,45672.03
2023-01-30T22:28:56.878Z,45682.00
2023-01-30T22:31:25.108Z,45698.00
2023-01-30T22:33:54.106Z,45678.03
2023-01-30T22:36:24.914Z,45676.03
2023-01-30T22:38:51.492Z,45676.03
2023-01-30T22:41:20.335Z,45674.03
2023-01-30T22:43:50.262Z,45674.03
2023-01-30T22:46:18.201Z,45686.00
2023-01-30T22:48:45.398Z,45678.03
2023-01-30T22:51:19.023Z,45676.03
2023-01-30T22:53:50.252Z,45704.00
2023-01-30T22:56:19.827Z,45684.00
2023-01-30T22:58:46.947Z,45692.00
2023-01-30T23:01:16.648Z,45670.03
2023-01-30T23:03:44.937Z,45674.03
2023-01-30T23:06:13.908Z,45700.00
2023-01-30T23:08:42.972Z,45690.00
2023-01-30T23:11:16.766Z,45694.00
2023-01-30T23:13:45.642Z,45690.00
2023-01-30T23:16:13.920Z,45688.00
2023-01-30T23:18:55.972Z,45690.00
2023-01-30T23:21:28.420Z,45688.00
2023-01-30T23:24:00.547Z,45690.00
2023-01-30T23:26:31.222Z,45684.00
2023-01-30T23:28:58.316Z,45682.00
2023-01-30T23:31:26.719Z,45694.00
2023-01-30T23:33:55.054Z,45682.00
2023-01-30T23:36:22.498Z,45680.03
2023-01-30T23:38:50.331Z,45654.03
2023-01-30T23:41:20.214Z,45674.03
2023-01-30T23:43:47.281Z,45680.03
2023-01-30T23:46:34.399Z,45682.00
2023-01-30T23:49:03.424Z,45682.00
2023-01-30T23:51:31.760Z,45684.00
2023-01-30T23:53:59.187Z,45674.03
2023-01-30T23:56:27.760Z,45670.03
2023-01-30T23:58:54.540Z,45678.03
